VREMENSKI PODATKI

VČERAJ
Time Temp. Dewp. Hum. Smer vet Hitrost ve Wind gust Bar. 1h Prec. 24h Prec.
00:07 6.5 6.2 98 284 2.8 5 1006.7 0.1010 0.0000
00:17 6.4 6.1 98 288 3.1 6.4 1006.8 0.1010 0.0000
00:27 6.3 6 98 273 3.1 6.1 1006.5 0.1010 0.0000
00:38 6.1 5.8 98 282 3.1 5 1006.5 0.0000 0.0000
00:48 6 5.7 98 277 2.8 4.2 1006.5 0.0000 0.0000
00:58 6 5.9 99 265 3.3 5.8 1006.6 0.0000 0.0000
01:08 6.2 6.1 99 270 4.2 6.4 1006.4 0.0000 0.0000
01:18 6.3 6.2 99 264 4.2 8.6 1006.5 0.1010 0.1000
01:28 6.4 6.3 99 273 3.9 6.9 1006.5 0.2020 0.2000
01:39 6.5 6.4 99 267 3.9 7.2 1006.4 0.4040 0.4000
01:44 6.5 6.4 99 260 3.9 6.1 1006.4 0.4040 0.4000
01:59 6.6 6.5 99 261 3.3 6.9 1006.4 0.4040 0.4000
02:09 6.6 6.5 99 265 3.1 6.1 1006.5 0.3030 0.4000
02:19 6.6 6.5 99 274 3.3 6.9 1006.4 0.4040 0.5000
02:29 6.5 6.4 99 277 3.9 6.4 1006.5 0.1010 0.5000
02:40 6.5 6.4 99 274 3.1 5.3 1006.6 0.1010 0.5000
02:50 6.5 6.4 99 265 3.3 6.1 1006.6 0.1010 0.5000
03:00 6.5 6.2 98 263 3.1 5.3 1006.4 0.1010 0.5000
03:10 6.4 6.1 98 266 3.1 5.3 1006.3 0.1010 0.5000
03:23 6.4 6.1 98 273 3.3 9.2 1006.5 0.0000 0.5000
03:32 6.3 6 98 306 3.9 6.9 1006.4 0.3030 0.8000
03:43 6.2 5.8 97 279 3.3 6.1 1006.3 0.3030 0.8000
03:52 6.1 5.7 97 281 3.1 6.1 1006.4 0.3030 0.8000
04:03 6.1 5.8 98 291 3.9 7.2 1006.4 0.3030 0.8000
04:13 6.2 5.9 98 310 5 8.3 1006.5 0.3030 0.8000
04:23 6.2 5.9 98 319 4.2 7.2 1006.5 0.3030 0.8000
04:33 6.3 6 98 319 5 8.3 1006.6 0.0000 0.8000
04:43 6.2 5.8 97 323 5.8 8.6 1006.8 0.0000 0.8000
04:53 6.1 5.7 97 322 4.4 8.6 1006.8 0.0000 0.8000
05:03 6 5.6 97 327 6.1 12.2 1006.9 0.0000 0.8000
05:14 5.9 5.3 96 328 5.3 10.3 1006.9 0.0000 0.8000
05:24 5.8 5.2 96 325 5.8 10 1007 0.0000 0.8000
05:34 5.7 5 95 324 5 8.6 1007 0.0000 0.8000
05:44 5.6 5 96 317 5.8 8.6 1007.1 0.0000 0.8000
05:55 5.6 5 96 319 6.1 11.1 1007.2 0.0000 0.8000
06:15 5.5 4.8 95 325 6.4 10.3 1007.3 0.1010 0.9000
06:25 5.5 4.8 95 325 5.8 9.2 1007.3 0.1010 0.9000
06:36 5.4 4.7 95 323 6.1 11.7 1007.4 0.1010 0.9000
06:46 5.4 4.7 95 321 5.3 10.3 1007.5 0.1010 0.9000
06:56 5.4 4.7 95 318 6.1 10.3 1007.5 0.1010 0.9000
07:06 5.3 4.6 95 314 5.3 10 1007.6 0.2020 1.1000
07:17 5.3 4.6 95 330 4.4 10.3 1007.7 0.2020 1.1000
07:27 5.3 4.7 96 335 3.9 6.9 1007.9 0.3030 1.2000
07:37 5.3 4.7 96 326 3.9 6.9 1008 0.3030 1.2000
07:47 5.3 4.7 96 327 4.4 8.3 1008.1 0.4040 1.3000
07:53 5.4 4.8 96 334 3.3 5.3 1008.2 0.7070 1.6000
08:08 5.4 5 97 337 3.3 6.4 1008.2 0.5050 1.6000
08:19 5.4 5 97 340 4.2 10.6 1008.3 0.5050 1.6000
08:29 5.5 4.9 96 351 3.3 8.6 1008.5 0.5050 1.7000
08:39 5.5 4.9 96 353 3.3 6.4 1008.7 0.6060 1.8000
08:46 5.5 4.9 96 3 3.9 9.4 1008.9 0.2020 1.8000
08:57 5.5 4.6 94 0 3.1 8.1 1009.1 0.4040 2.0000
09:09 5.4 4.7 95 7 3.9 10 1009.4 0.6060 2.2000
09:19 5.3 4.4 94 3 3.3 5.8 1009.4 0.7070 2.4000
09:29 5.3 4.6 95 14 2.2 6.4 1009.6 0.8080 2.5000
09:35 5.3 4.7 96 3 2.8 5.8 1009.7 0.7070 2.5000
09:50 5.5 4.9 96 342 4.4 8.6 1009.8 0.7070 2.5000
10:00 5.8 5.1 95 346 4.4 9.4 1010.1 0.4040 2.5000
10:10 5.8 4.9 94 353 4.2 8.3 1010.3 0.2020 2.5000
10:20 5.9 5 94 5 4.2 10 1010.4 0.0000 2.5000
10:30 6 5 93 1 3.3 8.3 1010.4 0.0000 2.5000
10:37 6 5 93 358 3.1 10 1010.6 0.0000 2.5000
10:48 6.1 5.1 93 354 3.9 7.2 1010.7 0.0000 2.5000
10:57 6.1 4.9 92 358 3.3 7.2 1010.9 0.0000 2.5000
11:08 6.1 4.9 92 348 4.2 8.3 1011 0.0000 2.5000
11:18 6.2 5.2 93 341 4.2 7.2 1011.1 0.1010 2.6000
11:29 6.4 5.4 93 329 3.3 6.1 1011.2 0.1010 2.6000
11:38 6.4 5.4 93 8 1.9 4.4 1011.3 0.1010 2.6000
11:48 6.4 5.2 92 342 2.2 4.2 1011.4 0.1010 2.6000
11:54 6.5 5.3 92 350 2.2 5.8 1011.4 0.1010 2.6000
12:09 6.6 5.4 92 347 4.2 9.2 1011.4 0.1010 2.6000
12:22 6.8 5.6 92 349 4.4 12.2 1011.6 0.0000 2.6000
12:31 6.8 5.4 91 13 3.9 9.2 1011.8 0.0000 2.6000
12:44 6.7 5.2 90 19 4.2 11.4 1012.2 0.2020 2.8000
12:54 6.1 5.2 94 348 3.1 6.1 1012.2 0.6060 3.2000
13:04 5.9 5.2 95 21 3.3 7.5 1012.4 0.6060 3.2000
13:14 5.7 5 95 17 3.3 6.9 1012.4 0.7070 3.3000
13:24 5.6 5.2 97 9 2.8 7.2 1012.4 0.8080 3.4000
13:34 5.9 5.6 98 4 3.1 8.1 1012.5 0.8080 3.4000
13:45 6.2 5.9 98 358 3.3 8.1 1012.6 0.2020 3.4000
13:55 6.3 5.9 97 357 3.9 10 1012.8 0.2020 3.4000
14:05 6.4 5.8 96 1 3.3 8.6 1012.8 0.1010 3.4000
14:19 6.6 5.9 95 14 4.4 12.8 1013.1 0.0000 3.4000
14:30 6.6 5.9 95 8 3.1 5.8 1013.2 0.0000 3.4000
14:41 6.4 6 97 1 3.9 8.6 1013.2 0.0000 3.4000
14:51 6.4 6.1 98 354 3.1 6.4 1013.4 0.0000 3.4000
15:01 6.3 5.9 97 14 3.1 6.4 1013.6 0.0000 3.4000
15:12 6.2 5.9 98 358 3.9 7.5 1013.7 0.0000 3.4000
15:21 6.2 5.9 98 358 2.8 5.8 1013.8 0.0000 3.4000
15:31 6.3 6 98 357 2.8 6.9 1013.9 0.0000 3.4000
15:41 6.3 6 98 4 3.3 7.5 1014.1 0.0000 3.4000
15:51 6.2 5.8 97 17 3.3 7.5 1014.3 0.0000 3.4000
16:02 6.1 5.5 96 5 2.2 6.9 1014.4 0.0000 3.4000
16:12 6.1 5.7 97 3 3.1 8.1 1014.6 0.0000 3.4000
16:23 6.1 5.7 97 8 3.1 7.2 1014.7 0.0000 3.4000
16:27 6.2 5.8 97 5 3.9 11.1 1014.9 0.0000 3.4000
16:37 5.9 5.3 96 29 5.3 11.1 1014.9 0.3030 3.7000
16:47 5.7 5.3 97 19 3.1 5.3 1015.1 0.3030 3.7000
16:57 5.5 5.2 98 7 1.9 4.2 1015.4 0.3030 3.7000
17:08 5.4 5.3 99 9 1.9 4.4 1015.5 0.3030 3.7000
17:17 5.4 5.3 99 15 1.9 4.2 1015.7 0.3030 3.7000
17:28 5.5 5.5 100 6 2.2 6.1 1015.9 0.0000 3.7000
17:38 5.7 5.7 100 4 3.1 6.9 1016 0.0000 3.7000
17:48 5.8 5.7 99 9 3.1 6.4 1016.1 0.0000 3.7000
17:58 5.8 5.7 99 0 3.9 8.6 1016.3 0.0000 3.7000
18:08 5.9 5.8 99 9 4.2 7.5 1016.6 0.0000 3.7000
18:18 5.9 5.6 98 25 4.4 7.5 1016.8 0.0000 3.7000
18:28 5.8 5.4 97 27 3.9 6.4 1016.9 0.1010 3.8000
18:39 5.6 5.2 97 25 2.8 5 1017 0.1010 3.8000
18:49 5.5 5.1 97 18 1.9 4.2 1017.3 0.1010 3.8000
19:00 5.5 5.2 98 7 2.2 5.8 1017.5 0.1010 3.8000
19:09 5.6 5.3 98 15 3.3 6.9 1017.6 0.1010 3.8000
19:20 5.7 5.3 97 23 3.9 9.2 1017.7 0.0000 3.8000
19:30 5.6 4.9 95 18 3.9 9.4 1017.8 0.0000 3.8000
19:40 5.5 4.9 96 12 3.3 6.4 1017.9 0.0000 3.8000
19:49 5.5 4.9 96 11 2.8 5.8 1018 0.0000 3.8000
20:00 5.4 4.8 96 19 3.3 7.5 1018.1 0.0000 3.8000
20:10 5.4 4.8 96 21 3.9 6.4 1018.3 0.0000 3.8000
20:20 5.5 4.9 96 10 2.8 6.1 1018.4 0.0000 3.8000
20:30 5.5 4.8 95 12 3.1 5.8 1018.5 0.0000 3.8000
20:41 5.4 4.7 95 15 2.8 6.4 1018.7 0.0000 3.8000
20:51 5.3 4.6 95 16 2.8 5.3 1018.8 0.0000 3.8000
21:00 5.3 4.6 95 14 2.8 5 1018.9 0.0000 3.8000
21:11 5.3 4.6 95 17 3.1 6.4 1019 0.0000 3.8000
21:16 5.2 4.5 95 14 3.1 6.4 1019.1 0.0000 3.8000
21:31 5.2 4.5 95 16 3.3 5.8 1019.1 0.0000 3.8000
21:41 5.1 4.4 95 15 3.1 7.2 1019 0.0000 3.8000
21:52 5.1 4.2 94 16 3.1 7.2 1019.2 0.0000 3.8000
22:01 5 4.1 94 23 3.1 6.9 1019.3 0.0000 3.8000
22:12 5 4.1 94 21 3.3 8.3 1019.4 0.0000 3.8000
22:22 5 4.1 94 14 3.1 6.4 1019.5 0.0000 3.8000
22:33 5 4.1 94 10 3.1 10 1019.7 0.0000 3.8000
22:43 5 4 93 12 3.1 6.1 1019.9 0.0000 3.8000
22:52 5 3.7 91 12 3.1 6.4 1020.1 0.0000 3.8000
23:03 4.9 3.4 90 11 1.9 5.3 1020.2 0.0000 3.8000
23:13 4.8 3.5 91 17 3.1 7.2 1020.3 0.0000 3.8000
23:23 4.9 3.4 90 12 2.8 6.1 1020.5 0.0000 3.8000
23:29 4.9 3.6 91 23 2.8 5 1020.5 0.0000 3.8000
23:44 4.8 3.5 91 22 2.8 5.3 1020.8 0.0000 3.8000
23:49 4.8 3.5 91 22 3.1 6.1 1020.9 0.0000

DNEVNA STATISTIKA

2020-01-18
TEMPERATURA
POVPREČNO
5.8
VISOKO
6.8
12:22
NIZKO
4.8
23:13
PRITISK
POVPREČNO
1012.1
VISOKO
1020.9
23:49
NIZKO
1006.3
03:10
ROSIŠČE
POVPREČNO
5.2
VISOKO
6.5
01:59
NIZKO
3.4
23:03
VLAŽNOST
POVPREČNO
96
VISOKO
100
17:28
NIZKO
90
12:44
HITROST VETRA
POVPREČNO
3.6
VISOKO
6.4
06:15
WIND GUST
POVPREČNO
7.4
VISOKO
12.8
14:19
SMER VETRA
PREVLADUJOČA
S
60.7%
S
60.7
SV
5.0
V
0.0
JV
0.0
J
0.0
JZ
0.0
Z
16.4
SZ
17.9
PADAVINE
PADAVINE URNO
0.8
PADAVINE DNEVNO
3.8
TEMPERATURA (°C)
NIZKO
4.8
VISOKO
6.8
POVPREČNO
5.8
PRITISK (hpa)
NIZKO
1006.3
VISOKO
1020.9
POVPREČNO
1012.1
DEVICE